Time;durP1;ratioP1;P1;durP2;ratioP2;P2;SDS_P1;SDS_P2;PMS_P1;PMS_P2;Temp;Humidity;BMP_temperature;BMP_pressure;BME280_temperature;BME280_humidity;BME280_pressure;Samples;Min_cycle;Max_cycle;Signal;HPM_P1;HPM_P2
2022/06/04 00:00:08;;;;;;;19.23;11.40;;;;;;;;;;5060131;28;20052;-61
2022/06/04 00:02:37;;;;;;;19.27;11.17;;;;;;;;;;5058754;28;20044;-61
2022/06/04 00:05:04;;;;;;;16.50;10.10;;;;;;;;;;5058345;28;20041;-61
2022/06/04 00:07:30;;;;;;;19.33;11.27;;;;;;;;;;5058753;28;20053;-61
2022/06/04 00:15:29;;;;;;;20.13;10.70;;;;;;;;;;5057048;28;20067;-61
2022/06/04 00:17:55;;;;;;;21.50;13.63;;;;;;;;;;5059856;28;20056;-61
2022/06/04 00:20:21;;;;;;;23.23;12.03;;;;;;;;;;5057068;28;20079;-61
2022/06/04 00:22:47;;;;;;;22.20;12.10;;;;;;;;;;5058329;28;20124;-61
2022/06/04 00:25:14;;;;;;;16.23;11.00;;;;;;;;;;5057885;28;20112;-61
2022/06/04 00:27:41;;;;;;;24.40;11.90;;;;;;;;;;5059706;28;20095;-61
2022/06/04 00:30:07;;;;;;;22.50;13.23;;;;;;;;;;5057498;28;20040;-61
2022/06/04 00:32:37;;;;;;;21.27;10.33;;;;;;;;;;5058206;28;20522;-61
2022/06/04 00:35:06;;;;;;;19.70;11.23;;;;;;;;;;5058039;28;20041;-62
2022/06/04 00:37:36;;;;;;;21.03;11.50;;;;;;;;;;5056969;28;20110;-62
2022/06/04 00:40:03;;;;;;;19.40;11.10;;;;;;;;;;5057792;28;20048;-62
2022/06/04 00:42:29;;;;;;;27.00;11.93;;;;;;;;;;5057917;28;20059;-61
2022/06/04 00:45:14;;;;;;;20.90;12.13;;;;;;;;;;5059071;28;20076;-61
2022/06/04 00:47:41;;;;;;;20.80;12.20;;;;;;;;;;5058421;28;20143;-61
2022/06/04 00:50:08;;;;;;;21.37;11.67;;;;;;;;;;5058234;28;20495;-61
2022/06/04 00:52:35;;;;;;;18.10;11.50;;;;;;;;;;5056235;28;20384;-61
2022/06/04 00:55:02;;;;;;;25.17;12.67;;;;;;;;;;5059405;28;20550;-61
2022/06/04 00:57:47;;;;;;;25.93;12.90;;;;;;;;;;5059663;28;20090;-61
2022/06/04 01:00:21;;;;;;;25.97;12.80;;;;;;;;;;5059028;28;20041;-61
2022/06/04 01:02:47;;;;;;;;;;;;;;;;;;5057638;28;20040;-61
2022/06/04 01:05:13;;;;;;;19.63;11.17;;;;;;;;;;5058852;28;19928;-61
2022/06/04 01:07:47;;;;;;;24.87;12.23;;;;;;;;;;5057497;28;20778;-61
2022/06/04 01:10:24;;;;;;;26.13;12.27;;;;;;;;;;5055733;28;20513;-61
2022/06/04 01:13:09;;;;;;;21.17;12.57;;;;;;;;;;5058625;28;20048;-61
2022/06/04 01:15:35;;;;;;;23.53;13.03;;;;;;;;;;5058746;28;20050;-61
2022/06/04 01:18:04;;;;;;;20.07;11.37;;;;;;;;;;5056377;28;20044;-61
2022/06/04 01:20:44;;;;;;;23.90;11.90;;;;;;;;;;5058387;28;20056;-61
2022/06/04 01:23:25;;;;;;;25.13;11.33;;;;;;;;;;5059464;28;20701;-61
2022/06/04 01:26:10;;;;;;;21.57;12.37;;;;;;;;;;5058658;28;20052;-61
2022/06/04 01:28:41;;;;;;;32.83;13.27;;;;;;;;;;5068271;28;20056;-61
2022/06/04 01:31:08;;;;;;;29.00;14.70;;;;;;;;;;5069601;28;20079;-62
2022/06/04 01:33:38;;;;;;;24.67;12.63;;;;;;;;;;5068511;28;20041;-62
2022/06/04 01:36:08;;;;;;;19.80;12.67;;;;;;;;;;5068999;28;20043;-61
2022/06/04 01:38:41;;;;;;;28.10;13.33;;;;;;;;;;5068246;28;20456;-62
2022/06/04 01:41:08;;;;;;;27.23;15.23;;;;;;;;;;5048946;28;20057;-62
2022/06/04 01:43:37;;;;;;;23.17;13.03;;;;;;;;;;5051831;28;20474;-61
2022/06/04 01:46:08;;;;;;;28.67;14.20;;;;;;;;;;5049005;28;20053;-61
2022/06/04 01:48:37;;;;;;;40.17;17.17;;;;;;;;;;5048934;28;20037;-62
2022/06/04 01:51:04;;;;;;;25.70;13.60;;;;;;;;;;5049621;28;20057;-61
2022/06/04 01:53:33;;;;;;;32.63;14.63;;;;;;;;;;5049385;28;20052;-61
2022/06/04 01:56:01;;;;;;;28.37;14.40;;;;;;;;;;5055232;28;20045;-61
2022/06/04 01:58:46;;;;;;;26.10;14.33;;;;;;;;;;5072553;28;20178;-61
2022/06/04 02:01:14;;;;;;;28.67;13.93;;;;;;;;;;5072201;28;20106;-61
2022/06/04 02:03:42;;;;;;;31.93;15.10;;;;;;;;;;5064252;28;20354;-61
2022/06/04 02:06:11;;;;;;;33.23;15.63;;;;;;;;;;5052204;28;20041;-61
2022/06/04 02:08:42;;;;;;;30.90;12.77;;;;;;;;;;5051197;28;20087;-61
2022/06/04 02:11:11;;;;;;;35.53;14.87;;;;;;;;;;5072123;28;20565;-61
2022/06/04 02:13:38;;;;;;;33.70;15.20;;;;;;;;;;5072685;28;20085;-61
2022/06/04 02:16:04;;;;;;;25.37;14.33;;;;;;;;;;5072412;28;20040;-61
2022/06/04 02:18:30;;;;;;;27.30;15.27;;;;;;;;;;5063790;28;20110;-61
2022/06/04 02:20:56;;;;;;;38.43;16.13;;;;;;;;;;5052114;28;20049;-61
2022/06/04 02:23:22;;;;;;;37.07;15.63;;;;;;;;;;5050733;28;20052;-61
2022/06/04 02:25:48;;;;;;;36.17;15.87;;;;;;;;;;5052275;28;20132;-61
2022/06/04 02:28:14;;;;;;;36.20;16.13;;;;;;;;;;5051664;28;20041;-61
2022/06/04 02:30:59;;;;;;;30.50;14.13;;;;;;;;;;5056164;28;20040;-61
2022/06/04 02:33:34;;;;;;;29.37;16.40;;;;;;;;;;5058721;28;20411;-61
2022/06/04 02:36:04;;;;;;;32.60;15.70;;;;;;;;;;5051525;28;20049;-61
2022/06/04 02:38:40;;;;;;;36.07;16.93;;;;;;;;;;5051694;28;20551;-61
2022/06/04 02:41:16;;;;;;;30.27;16.03;;;;;;;;;;5050947;28;20423;-61
2022/06/04 02:43:44;;;;;;;38.00;17.37;;;;;;;;;;5054017;28;20057;-61
2022/06/04 02:46:13;;;;;;;38.47;18.50;;;;;;;;;;5051573;28;20048;-62
2022/06/04 02:49:00;;;;;;;33.40;16.33;;;;;;;;;;5050070;28;20068;-61
2022/06/04 02:51:30;;;;;;;30.63;15.77;;;;;;;;;;5047605;28;20056;-61
2022/06/04 02:53:56;;;;;;;26.83;13.93;;;;;;;;;;5052027;28;20045;-61
2022/06/04 02:56:24;;;;;;;39.17;18.23;;;;;;;;;;5051955;28;20137;-61
2022/06/04 02:58:52;;;;;;;41.53;18.33;;;;;;;;;;5061547;28;20052;-61
2022/06/04 03:01:20;;;;;;;34.03;17.60;;;;;;;;;;5071671;28;20037;-61
2022/06/04 03:03:46;;;;;;;42.50;18.70;;;;;;;;;;5071795;28;20040;-61
2022/06/04 03:06:23;;;;;;;39.53;16.93;;;;;;;;;;5068471;28;20055;-61
2022/06/04 03:08:50;;;;;;;31.50;16.40;;;;;;;;;;5063332;28;20128;-61
2022/06/04 03:11:16;;;;;;;35.70;17.93;;;;;;;;;;5050905;28;20453;-61
2022/06/04 03:13:42;;;;;;;38.20;18.03;;;;;;;;;;5056634;28;20645;-61
2022/06/04 03:16:08;;;;;;;36.37;18.53;;;;;;;;;;5069206;28;20127;-61
2022/06/04 03:18:34;;;;;;;34.97;17.70;;;;;;;;;;5067686;28;20105;-61
2022/06/04 03:21:00;;;;;;;39.47;18.10;;;;;;;;;;5069271;28;20055;-61
2022/06/04 03:23:26;;;;;;;34.03;17.20;;;;;;;;;;5053729;28;20037;-61
2022/06/04 03:25:52;;;;;;;30.03;16.43;;;;;;;;;;5069148;28;20525;-61
2022/06/04 03:28:18;;;;;;;39.70;18.60;;;;;;;;;;5069647;28;20495;-61
2022/06/04 03:30:44;;;;;;;35.00;17.80;;;;;;;;;;5066470;28;20506;-61
2022/06/04 03:33:10;;;;;;;36.90;18.70;;;;;;;;;;5051527;28;20376;-61
2022/06/04 03:35:37;;;;;;;40.83;17.23;;;;;;;;;;5069501;28;20045;-61
2022/06/04 03:38:03;;;;;;;39.50;18.17;;;;;;;;;;5069625;28;20051;-61
2022/06/04 03:40:29;;;;;;;35.47;16.27;;;;;;;;;;5059739;28;20056;-61
2022/06/04 03:42:55;;;;;;;42.80;18.27;;;;;;;;;;5069858;28;20506;-61
2022/06/04 03:45:21;;;;;;;36.80;17.40;;;;;;;;;;5070694;28;20098;-62
2022/06/04 03:47:47;;;;;;;35.87;16.73;;;;;;;;;;5068218;28;20052;-61
2022/06/04 03:50:15;;;;;;;38.90;17.20;;;;;;;;;;5062899;28;20651;-61
2022/06/04 03:52:41;;;;;;;33.57;18.00;;;;;;;;;;5062826;28;20036;-61
2022/06/04 03:55:08;;;;;;;30.30;16.63;;;;;;;;;;5053362;28;20052;-61
2022/06/04 03:57:38;;;;;;;31.97;16.43;;;;;;;;;;5069293;28;20048;-61
2022/06/04 04:00:10;;;;;;;42.40;17.73;;;;;;;;;;5054910;28;20702;-61
2022/06/04 04:02:36;;;;;;;34.27;18.50;;;;;;;;;;5057565;28;20571;-61
2022/06/04 04:05:04;;;;;;;39.80;17.87;;;;;;;;;;5066509;28;20041;-61
2022/06/04 04:07:30;;;;;;;35.00;17.80;;;;;;;;;;5053238;28;20122;-61
2022/06/04 04:09:56;;;;;;;33.17;17.40;;;;;;;;;;5064321;28;20047;-61
2022/06/04 04:12:22;;;;;;;37.97;18.20;;;;;;;;;;5057586;28;20099;-61
2022/06/04 04:14:48;;;;;;;40.17;17.83;;;;;;;;;;5069193;28;20093;-61
2022/06/04 04:17:14;;;;;;;35.57;17.50;;;;;;;;;;5067890;28;20450;-61
2022/06/04 04:19:40;;;;;;;27.93;15.37;;;;;;;;;;5057816;28;20040;-61
2022/06/04 04:22:06;;;;;;;37.07;16.13;;;;;;;;;;5052606;28;20139;-61
2022/06/04 04:24:32;;;;;;;29.10;14.87;;;;;;;;;;5065326;28;20423;-61
2022/06/04 04:26:58;;;;;;;26.23;15.17;;;;;;;;;;5061372;28;20048;-61
2022/06/04 04:29:25;;;;;;;26.30;13.67;;;;;;;;;;5055437;28;20044;-61
2022/06/04 04:31:51;;;;;;;27.40;12.77;;;;;;;;;;5050469;28;20495;-61
2022/06/04 04:34:17;;;;;;;26.13;13.00;;;;;;;;;;5051948;28;20045;-62
2022/06/04 04:36:45;;;;;;;35.40;14.87;;;;;;;;;;5048866;28;20064;-61
2022/06/04 04:39:11;;;;;;;27.57;13.57;;;;;;;;;;5047535;28;20164;-61
2022/06/04 04:41:37;;;;;;;27.20;12.20;;;;;;;;;;5048166;28;20138;-61
2022/06/04 04:44:03;;;;;;;23.73;12.53;;;;;;;;;;5049277;28;20617;-61
2022/06/04 04:46:29;;;;;;;23.00;12.43;;;;;;;;;;5049192;28;20037;-61
2022/06/04 04:48:56;;;;;;;20.83;12.30;;;;;;;;;;5048808;28;20110;-61
2022/06/04 04:51:23;;;;;;;24.93;12.10;;;;;;;;;;5048966;28;20045;-61
2022/06/04 04:53:50;;;;;;;27.63;12.17;;;;;;;;;;5049121;28;20041;-61
2022/06/04 04:56:17;;;;;;;20.17;11.13;;;;;;;;;;5048329;28;20055;-61
2022/06/04 04:58:43;;;;;;;19.23;11.90;;;;;;;;;;5048730;28;20526;-61
2022/06/04 05:01:16;;;;;;;31.23;12.23;;;;;;;;;;5063887;28;20056;-61
2022/06/04 05:03:44;;;;;;;19.03;11.07;;;;;;;;;;5068726;28;20058;-62
2022/06/04 05:06:11;;;;;;;17.20;10.10;;;;;;;;;;5068673;28;20044;-61
2022/06/04 05:08:37;;;;;;;17.57;10.00;;;;;;;;;;5068500;28;20040;-62
2022/06/04 05:11:10;;;;;;;18.90;10.37;;;;;;;;;;5056833;28;20041;-63
2022/06/04 05:13:37;;;;;;;21.13;10.05;;;;;;;;;;5048529;28;20799;-62
2022/06/04 05:16:03;;;;;;;20.60;8.87;;;;;;;;;;5048583;28;20045;-63
2022/06/04 05:18:29;;;;;;;19.53;9.60;;;;;;;;;;5048671;28;20056;-61
2022/06/04 05:21:06;;;;;;;15.30;8.70;;;;;;;;;;5048822;28;20075;-62
2022/06/04 05:23:32;;;;;;;15.60;8.53;;;;;;;;;;5048957;28;20472;-61
2022/06/04 05:25:58;;;;;;;18.90;8.50;;;;;;;;;;5048656;28;20410;-62
2022/06/04 05:28:24;;;;;;;12.87;8.17;;;;;;;;;;5067837;28;20098;-61
2022/06/04 05:30:50;;;;;;;16.30;8.27;;;;;;;;;;5072585;28;20072;-61
2022/06/04 05:33:17;;;;;;;13.90;7.70;;;;;;;;;;5072424;28;20071;-61
2022/06/04 05:35:43;;;;;;;16.07;7.77;;;;;;;;;;5072107;28;20053;-61
2022/06/04 05:38:09;;;;;;;14.00;7.40;;;;;;;;;;5072072;28;20672;-62
2022/06/04 05:40:35;;;;;;;11.57;6.80;;;;;;;;;;5070555;28;20426;-61
2022/06/04 05:43:01;;;;;;;13.13;6.90;;;;;;;;;;5071297;28;20410;-61
2022/06/04 05:45:27;;;;;;;11.50;7.13;;;;;;;;;;5072505;28;20074;-62
2022/06/04 05:47:54;;;;;;;14.97;7.43;;;;;;;;;;5070587;28;20045;-62
2022/06/04 05:50:20;;;;;;;11.80;7.00;;;;;;;;;;5072308;28;20040;-61
2022/06/04 05:52:46;;;;;;;16.93;7.40;;;;;;;;;;5061070;28;20049;-61
2022/06/04 05:55:12;;;;;;;13.07;6.27;;;;;;;;;;5051691;28;20554;-62
2022/06/04 05:57:38;;;;;;;10.47;5.90;;;;;;;;;;5051931;28;20151;-61
2022/06/04 06:00:07;;;;;;;10.30;5.87;;;;;;;;;;5051701;28;20558;-61
2022/06/04 06:02:34;;;;;;;11.47;5.97;;;;;;;;;;5052089;28;20071;-61
2022/06/04 06:05:00;;;;;;;8.90;5.80;;;;;;;;;;5051996;28;20128;-62
2022/06/04 06:07:26;;;;;;;10.27;5.73;;;;;;;;;;5051774;28;20036;-61
2022/06/04 06:09:52;;;;;;;9.17;5.70;;;;;;;;;;5050245;28;20107;-62
2022/06/04 06:12:18;;;;;;;11.27;6.43;;;;;;;;;;5051293;28;20119;-61
2022/06/04 06:14:44;;;;;;;11.53;5.90;;;;;;;;;;5034229;28;20114;-62
2022/06/04 06:17:10;;;;;;;11.17;5.83;;;;;;;;;;5051703;28;20075;-62
2022/06/04 06:19:36;;;;;;;10.43;5.80;;;;;;;;;;5051098;28;20527;-62
2022/06/04 06:22:02;;;;;;;10.13;5.10;;;;;;;;;;5051528;28;20045;-62
2022/06/04 06:24:28;;;;;;;18.20;6.20;;;;;;;;;;5052125;28;20072;-61
2022/06/04 06:26:57;;;;;;;10.20;5.03;;;;;;;;;;5051882;28;20052;-61
2022/06/04 06:29:24;;;;;;;8.93;4.67;;;;;;;;;;5051450;28;20469;-62
2022/06/04 06:31:50;;;;;;;10.87;5.50;;;;;;;;;;5051170;28;20124;-61
2022/06/04 06:34:17;;;;;;;10.10;5.27;;;;;;;;;;5055080;28;20052;-61
2022/06/04 06:36:43;;;;;;;8.13;5.27;;;;;;;;;;5062004;28;20045;-61
2022/06/04 06:39:09;;;;;;;9.20;4.77;;;;;;;;;;5064573;28;20402;-62
2022/06/04 06:41:36;;;;;;;14.03;5.23;;;;;;;;;;5065994;28;20048;-62
2022/06/04 06:44:03;;;;;;;8.77;5.00;;;;;;;;;;5068429;28;20062;-61
2022/06/04 06:46:29;;;;;;;7.83;4.73;;;;;;;;;;5057001;28;20110;-61
2022/06/04 06:49:00;;;;;;;9.03;4.03;;;;;;;;;;5069709;28;20049;-61
2022/06/04 06:51:28;;;;;;;7.07;4.57;;;;;;;;;;5068521;28;20044;-62
2022/06/04 06:53:55;;;;;;;9.90;5.60;;;;;;;;;;5069110;28;20049;-62
2022/06/04 06:56:23;;;;;;;15.57;4.23;;;;;;;;;;5066023;28;20084;-61
2022/06/04 06:58:49;;;;;;;5.40;4.10;;;;;;;;;;5057849;28;20082;-61
2022/06/04 07:01:15;;;;;;;10.80;4.37;;;;;;;;;;5060453;28;20040;-61
2022/06/04 07:03:42;;;;;;;9.53;4.37;;;;;;;;;;5070635;28;20395;-61
2022/06/04 07:06:09;;;;;;;5.87;4.10;;;;;;;;;;5069960;28;20047;-62
2022/06/04 07:08:36;;;;;;;5.93;3.70;;;;;;;;;;5068290;28;20058;-62
2022/06/04 07:11:02;;;;;;;6.07;3.93;;;;;;;;;;5060146;28;20037;-62
2022/06/04 07:13:28;;;;;;;8.10;3.67;;;;;;;;;;5069401;28;20055;-61
2022/06/04 07:15:54;;;;;;;12.13;4.23;;;;;;;;;;5059767;28;20052;-61
2022/06/04 07:18:20;;;;;;;8.10;4.10;;;;;;;;;;5060471;28;20133;-61
2022/06/04 07:20:46;;;;;;;7.83;3.83;;;;;;;;;;5070134;28;20093;-62
2022/06/04 07:23:13;;;;;;;7.37;3.70;;;;;;;;;;5063816;28;20651;-61
2022/06/04 07:25:41;;;;;;;6.80;3.73;;;;;;;;;;5069165;28;20139;-61
2022/06/04 07:28:08;;;;;;;10.10;3.63;;;;;;;;;;5070060;28;20094;-61
2022/06/04 07:30:34;;;;;;;10.43;4.67;;;;;;;;;;5058392;28;20132;-61
2022/06/04 07:33:00;;;;;;;6.70;3.73;;;;;;;;;;5068465;28;20145;-61
2022/06/04 07:35:26;;;;;;;6.20;3.83;;;;;;;;;;5059990;28;20380;-62
2022/06/04 07:37:52;;;;;;;6.67;3.67;;;;;;;;;;5061464;28;20045;-62
2022/06/04 07:40:18;;;;;;;6.67;3.07;;;;;;;;;;5065933;28;20044;-62
2022/06/04 07:42:45;;;;;;;6.93;3.00;;;;;;;;;;5065369;28;20114;-61
2022/06/04 07:45:12;;;;;;;6.13;2.87;;;;;;;;;;5063239;28;20044;-62
2022/06/04 07:47:40;;;;;;;4.53;2.50;;;;;;;;;;5070063;28;20040;-61
2022/06/04 07:50:07;;;;;;;3.73;2.53;;;;;;;;;;5068606;28;20049;-61
2022/06/04 07:52:34;;;;;;;2.97;2.20;;;;;;;;;;5064652;28;20526;-61
2022/06/04 07:55:00;;;;;;;10.43;3.43;;;;;;;;;;5053835;28;20507;-61
2022/06/04 07:57:26;;;;;;;6.87;2.73;;;;;;;;;;5057089;28;20147;-61
2022/06/04 07:59:52;;;;;;;6.37;2.53;;;;;;;;;;5070189;28;20068;-61
2022/06/04 08:02:21;;;;;;;3.67;2.23;;;;;;;;;;5055086;28;20051;-61
2022/06/04 08:04:47;;;;;;;4.10;1.77;;;;;;;;;;5053867;28;20051;-61
2022/06/04 08:07:15;;;;;;;4.23;2.70;;;;;;;;;;5059625;28;20041;-61
2022/06/04 08:09:41;;;;;;;6.57;3.20;;;;;;;;;;5068248;28;20051;-62
2022/06/04 08:12:07;;;;;;;5.53;2.83;;;;;;;;;;5063198;28;20040;-61
2022/06/04 08:14:33;;;;;;;5.30;2.60;;;;;;;;;;5064171;28;20049;-61
2022/06/04 08:17:00;;;;;;;9.33;3.60;;;;;;;;;;5062375;28;20048;-61
2022/06/04 08:19:28;;;;;;;5.73;2.60;;;;;;;;;;5061299;28;20044;-61
2022/06/04 08:21:55;;;;;;;4.70;2.60;;;;;;;;;;5054590;28;20051;-62
2022/06/04 08:24:22;;;;;;;3.97;2.40;;;;;;;;;;5063025;28;20036;-61
2022/06/04 08:26:53;;;;;;;6.07;3.00;;;;;;;;;;5067035;28;20079;-61
2022/06/04 08:29:20;;;;;;;5.00;2.57;;;;;;;;;;5058465;28;20048;-61
2022/06/04 08:31:47;;;;;;;5.03;2.60;;;;;;;;;;5054972;28;20068;-61
2022/06/04 08:34:13;;;;;;;4.57;2.50;;;;;;;;;;5052263;28;20041;-61
2022/06/04 08:36:41;;;;;;;8.57;2.33;;;;;;;;;;5049969;28;20037;-61
2022/06/04 08:39:07;;;;;;;4.70;2.30;;;;;;;;;;5060309;28;20056;-61
2022/06/04 08:41:42;;;;;;;6.90;2.63;;;;;;;;;;5057000;28;20533;-61
2022/06/04 08:44:13;;;;;;;8.60;2.77;;;;;;;;;;5049155;28;20041;-61
2022/06/04 08:46:47;;;;;;;6.80;2.80;;;;;;;;;;5063280;28;20036;-61
2022/06/04 08:49:14;;;;;;;3.87;2.40;;;;;;;;;;5068806;28;20521;-61
2022/06/04 08:51:41;;;;;;;8.43;2.87;;;;;;;;;;5069557;28;20040;-61
2022/06/04 08:59:46;;;;;;;4.85;2.35;;;;;;;;;;5049430;28;20056;-61
2022/06/04 09:02:16;;;;;;;5.15;3.17;;;;;;;;;;5064944;28;20087;-61
2022/06/04 09:04:42;;;;;;;8.52;3.17;;;;;;;;;;5068664;28;20064;-61
2022/06/04 09:07:16;;;;;;;5.63;2.40;;;;;;;;;;5068563;28;20072;-62
2022/06/04 09:09:47;;;;;;;5.93;2.40;;;;;;;;;;5070458;28;20053;-62
2022/06/04 09:12:19;;;;;;;7.93;2.97;;;;;;;;;;5061218;28;20041;-61
2022/06/04 09:14:51;;;;;;;4.87;3.10;;;;;;;;;;5070494;28;20052;-62
2022/06/04 09:17:24;;;;;;;5.68;2.92;;;;;;;;;;5072843;28;20086;-62
2022/06/04 09:19:53;;;;;;;5.00;2.83;;;;;;;;;;5073500;28;20465;-61
2022/06/04 09:22:23;;;;;;;5.15;2.90;;;;;;;;;;5075775;28;20051;-62
2022/06/04 09:24:49;;;;;;;5.72;3.08;;;;;;;;;;5072508;28;20067;-62
2022/06/04 09:27:26;;;;;;;4.55;2.83;;;;;;;;;;5061352;28;20076;-62
2022/06/04 09:30:04;;;;;;;5.88;2.47;;;;;;;;;;5054858;28;20049;-62
2022/06/04 09:32:44;;;;;;;4.85;2.80;;;;;;;;;;5053264;28;20056;-61
2022/06/04 09:35:12;;;;;;;8.27;2.88;;;;;;;;;;5056117;28;20033;-61
2022/06/04 09:37:42;;;;;;;7.38;3.13;;;;;;;;;;5056410;28;20036;-62
2022/06/04 09:40:16;;;;;;;6.65;2.60;;;;;;;;;;5054432;28;20148;-62
2022/06/04 09:42:42;;;;;;;7.75;3.03;;;;;;;;;;5055653;28;20055;-62
2022/06/04 09:45:17;;;;;;;3.80;2.40;;;;;;;;;;5055450;28;20091;-62
2022/06/04 09:47:45;;;;;;;3.72;2.25;;;;;;;;;;5053758;28;20056;-62
2022/06/04 09:50:30;;;;;;;4.65;3.10;;;;;;;;;;5061472;28;20048;-62
2022/06/04 09:53:15;;;;;;;5.45;3.20;;;;;;;;;;5075391;28;20499;-61
2022/06/04 09:55:51;;;;;;;4.70;2.10;;;;;;;;;;5073503;28;20044;-61
2022/06/04 09:58:17;;;;;;;5.90;2.70;;;;;;;;;;5071749;28;20056;-61
2022/06/04 10:00:53;;;;;;;6.05;2.60;;;;;;;;;;5074693;28;20048;-62
2022/06/04 10:03:19;;;;;;;5.43;3.00;;;;;;;;;;5075456;28;20048;-62
2022/06/04 10:05:50;;;;;;;4.30;2.80;;;;;;;;;;5060578;28;20128;-62
2022/06/04 10:08:20;;;;;;;5.90;2.90;;;;;;;;;;5055353;28;20145;-61
2022/06/04 10:10:46;;;;;;;5.75;2.90;;;;;;;;;;5055051;28;20124;-62
2022/06/04 10:13:42;;;;;;;4.95;2.67;;;;;;;;;;5054927;28;20057;-62
2022/06/04 10:16:20;;;;;;;5.38;3.17;;;;;;;;;;5066860;28;20048;-62
2022/06/04 10:18:53;;;;;;;7.70;2.95;;;;;;;;;;5071563;28;20051;-62
2022/06/04 10:21:20;;;;;;;3.20;2.40;;;;;;;;;;5071874;28;20037;-62
2022/06/04 10:23:48;;;;;;;3.88;2.72;;;;;;;;;;5071421;28;20569;-62
2022/06/04 10:26:17;;;;;;;6.55;3.00;;;;;;;;;;5071145;28;20040;-62
2022/06/04 10:28:51;;;;;;;5.05;3.42;;;;;;;;;;5071454;28;20944;-62
2022/06/04 10:31:21;;;;;;;4.72;3.28;;;;;;;;;;5069644;28;20071;-62
2022/06/04 10:33:47;;;;;;;7.13;2.88;;;;;;;;;;5071002;28;20421;-62
2022/06/04 10:36:32;;;;;;;6.05;2.53;;;;;;;;;;5071380;28;20127;-62
2022/06/04 10:39:03;;;;;;;4.68;2.72;;;;;;;;;;5070971;28;20131;-62
2022/06/04 10:41:47;;;;;;;6.03;2.88;;;;;;;;;;5052966;28;20053;-62
2022/06/04 10:44:31;;;;;;;4.07;2.50;;;;;;;;;;5051668;28;20128;-59
2022/06/04 10:47:08;;;;;;;5.10;2.97;;;;;;;;;;5051332;28;20050;-60
2022/06/04 10:49:53;;;;;;;4.43;2.60;;;;;;;;;;5051611;28;20156;-60
2022/06/04 10:52:28;;;;;;;13.27;2.78;;;;;;;;;;5052242;28;20045;-60
2022/06/04 10:54:54;;;;;;;3.10;2.10;;;;;;;;;;5070978;28;20414;-60
2022/06/04 10:57:25;;;;;;;4.00;3.10;;;;;;;;;;5070338;28;20162;-60
2022/06/04 10:59:51;;;;;;;7.47;3.00;;;;;;;;;;5071132;28;20037;-60
2022/06/04 11:02:20;;;;;;;4.45;2.67;;;;;;;;;;5070991;28;20044;-60
2022/06/04 11:04:48;;;;;;;3.55;2.72;;;;;;;;;;5064783;28;20048;-60
2022/06/04 11:07:14;;;;;;;4.53;2.80;;;;;;;;;;5050705;28;20495;-60
2022/06/04 11:09:42;;;;;;;5.03;2.88;;;;;;;;;;5051012;28;20049;-61
2022/06/04 11:12:21;;;;;;;5.95;3.10;;;;;;;;;;5049668;28;20514;-60
2022/06/04 11:14:51;;;;;;;4.90;2.90;;;;;;;;;;5057938;28;20045;-61
2022/06/04 11:17:37;;;;;;;5.93;2.80;;;;;;;;;;5058583;28;20040;-61
2022/06/04 11:20:11;;;;;;;5.35;2.97;;;;;;;;;;5059515;28;20049;-61
2022/06/04 11:22:43;;;;;;;5.00;2.85;;;;;;;;;;5057598;28;20044;-60
2022/06/04 11:25:29;;;;;;;4.93;3.08;;;;;;;;;;5058014;28;20041;-61
2022/06/04 11:27:55;;;;;;;2.97;2.10;;;;;;;;;;5067930;28;20040;-61
2022/06/04 11:30:35;;;;;;;5.50;2.60;;;;;;;;;;5062863;28;20508;-61
2022/06/04 11:33:07;;;;;;;4.47;2.67;;;;;;;;;;5064428;28;20041;-61
2022/06/04 11:35:44;;;;;;;3.95;2.50;;;;;;;;;;5070667;28;20071;-61
2022/06/04 11:38:10;;;;;;;4.30;2.72;;;;;;;;;;5070095;28;20048;-61
2022/06/04 11:40:50;;;;;;;3.22;2.20;;;;;;;;;;5070572;28;20049;-61
2022/06/04 11:43:16;;;;;;;3.25;2.28;;;;;;;;;;5070385;28;20071;-60
2022/06/04 11:46:01;;;;;;;5.07;1.98;;;;;;;;;;5057252;28;20053;-61
2022/06/04 11:48:30;;;;;;;3.53;2.10;;;;;;;;;;5050370;28;20049;-60
2022/06/04 11:50:59;;;;;;;4.45;2.10;;;;;;;;;;5050054;28;20053;-60
2022/06/04 11:53:44;;;;;;;3.88;2.00;;;;;;;;;;5049953;28;20060;-60
2022/06/04 11:56:16;;;;;;;3.85;1.75;;;;;;;;;;5049734;28;20503;-61
2022/06/04 11:58:48;;;;;;;4.72;1.60;;;;;;;;;;5048745;28;20049;-61
2022/06/04 12:01:14;;;;;;;;;;;;;;;;;;5049991;28;20045;-61
2022/06/04 12:03:44;;;;;;;3.72;1.90;;;;;;;;;;5049715;28;20550;-61
2022/06/04 12:06:13;;;;;;;2.83;1.90;;;;;;;;;;5047694;28;20052;-61
2022/06/04 12:08:44;;;;;;;4.88;1.90;;;;;;;;;;5049548;28;20041;-61
2022/06/04 12:11:10;;;;;;;3.78;1.85;;;;;;;;;;5049289;28;20040;-61
2022/06/04 12:13:56;;;;;;;3.53;2.25;;;;;;;;;;5049076;28;20045;-61
2022/06/04 12:16:22;;;;;;;3.65;1.95;;;;;;;;;;5049154;28;20071;-61
2022/06/04 12:19:00;;;;;;;5.22;2.75;;;;;;;;;;5048870;28;20051;-61
2022/06/04 12:24:32;;;;;;;3.95;1.90;;;;;;;;;;5048311;28;20144;-61
2022/06/04 12:27:06;;;;;;;3.57;1.93;;;;;;;;;;5049252;28;20041;-61
2022/06/04 12:29:33;;;;;;;4.53;1.88;;;;;;;;;;5029680;28;20414;-60
2022/06/04 12:32:01;;;;;;;3.85;1.85;;;;;;;;;;5048029;28;20128;-60
2022/06/04 12:34:33;;;;;;;6.07;2.15;;;;;;;;;;5048316;28;20048;-61
2022/06/04 12:36:59;;;;;;;3.38;1.60;;;;;;;;;;5048136;28;20061;-61
2022/06/04 12:39:36;;;;;;;4.78;2.28;;;;;;;;;;5049408;28;20072;-61
2022/06/04 12:42:12;;;;;;;5.85;2.00;;;;;;;;;;5048931;28;20095;-61
2022/06/04 12:44:40;;;;;;;5.80;2.70;;;;;;;;;;5049077;28;20067;-61
2022/06/04 12:47:24;;;;;;;3.38;1.73;;;;;;;;;;5061086;28;20407;-60
2022/06/04 12:50:02;;;;;;;4.20;2.22;;;;;;;;;;5069400;28;20040;-60
2022/06/04 12:52:32;;;;;;;4.57;2.05;;;;;;;;;;5069316;28;20510;-60
2022/06/04 12:55:21;;;;;;;3.58;2.03;;;;;;;;;;5067552;28;20044;-61
2022/06/04 12:57:50;;;;;;;5.65;2.17;;;;;;;;;;5053779;28;20045;-60
2022/06/04 13:00:17;;;;;;;4.65;1.75;;;;;;;;;;5048309;28;20098;-61
2022/06/04 13:02:55;;;;;;;3.10;1.65;;;;;;;;;;5048668;28;20061;-60
2022/06/04 13:05:25;;;;;;;4.55;2.20;;;;;;;;;;5048350;28;20074;-60
2022/06/04 13:07:54;;;;;;;3.72;1.63;;;;;;;;;;5066962;28;20053;-61
2022/06/04 13:10:25;;;;;;;5.05;2.05;;;;;;;;;;5068826;28;20513;-60
2022/06/04 13:12:59;;;;;;;6.00;1.70;;;;;;;;;;5068901;28;20042;-60
2022/06/04 13:15:25;;;;;;;2.35;1.67;;;;;;;;;;5068715;28;20048;-60
2022/06/04 13:17:52;;;;;;;2.92;1.80;;;;;;;;;;5068743;28;20047;-60
2022/06/04 13:20:26;;;;;;;2.88;1.73;;;;;;;;;;5066256;28;20541;-60
2022/06/04 13:22:56;;;;;;;2.70;1.70;;;;;;;;;;5048568;28;20056;-60
2022/06/04 13:25:30;;;;;;;2.88;1.60;;;;;;;;;;5068333;28;20055;-60
2022/06/04 13:27:57;;;;;;;5.03;2.05;;;;;;;;;;5055250;28;20045;-60
2022/06/04 13:30:24;;;;;;;3.42;1.60;;;;;;;;;;5067707;28;20192;-60
2022/06/04 13:32:51;;;;;;;5.18;1.90;;;;;;;;;;5063764;28;20120;-60
2022/06/04 13:35:19;;;;;;;4.75;2.10;;;;;;;;;;5061361;28;20075;-60
2022/06/04 13:37:46;;;;;;;3.42;1.90;;;;;;;;;;5068618;28;20044;-60
2022/06/04 13:40:18;;;;;;;4.55;2.47;;;;;;;;;;5060322;28;20530;-60
2022/06/04 13:42:46;;;;;;;3.60;2.08;;;;;;;;;;5048868;28;20049;-60
2022/06/04 13:45:26;;;;;;;4.93;1.80;;;;;;;;;;5048915;28;20164;-61
2022/06/04 13:47:53;;;;;;;4.05;1.88;;;;;;;;;;5048893;28;20107;-60
2022/06/04 13:50:21;;;;;;;4.47;1.85;;;;;;;;;;5051868;28;20132;-60
2022/06/04 13:52:55;;;;;;;4.38;2.03;;;;;;;;;;5058903;28;20044;-60
2022/06/04 13:55:30;;;;;;;3.45;1.67;;;;;;;;;;5072698;28;20036;-60
2022/06/04 13:57:59;;;;;;;2.60;1.67;;;;;;;;;;5071394;28;20095;-60
2022/06/04 14:00:27;;;;;;;4.95;2.00;;;;;;;;;;5071381;28;20048;-60
2022/06/04 14:02:59;;;;;;;3.78;1.85;;;;;;;;;;5059182;28;20044;-61
2022/06/04 14:05:46;;;;;;;4.13;1.73;;;;;;;;;;5062773;28;20044;-61
2022/06/04 14:08:16;;;;;;;4.55;2.03;;;;;;;;;;5061162;28;20087;-61
2022/06/04 14:10:43;;;;;;;3.30;1.60;;;;;;;;;;5061083;28;20398;-61
2022/06/04 14:13:18;;;;;;;5.18;2.05;;;;;;;;;;5058935;28;20049;-61
2022/06/04 14:16:00;;;;;;;6.88;1.60;;;;;;;;;;5060566;28;20048;-61
2022/06/04 14:18:26;;;;;;;4.35;1.90;;;;;;;;;;5060279;28;20079;-61
2022/06/04 14:20:55;;;;;;;7.38;2.20;;;;;;;;;;5056928;28;20521;-60
2022/06/04 14:23:40;;;;;;;4.15;2.40;;;;;;;;;;5056175;28;20048;-60
2022/06/04 14:26:33;;;;;;;2.97;1.77;;;;;;;;;;5056592;28;20046;-60
2022/06/04 14:29:11;;;;;;;7.85;2.53;;;;;;;;;;5057163;28;20051;-61
2022/06/04 14:31:58;;;;;;;3.83;1.92;;;;;;;;;;5056734;28;20063;-61
2022/06/04 14:34:28;;;;;;;8.18;2.30;;;;;;;;;;5066212;28;20445;-60
2022/06/04 14:36:55;;;;;;;7.53;1.95;;;;;;;;;;5070944;28;20410;-61
2022/06/04 14:39:23;;;;;;;7.35;1.80;;;;;;;;;;5066437;28;20049;-61
2022/06/04 14:41:49;;;;;;;5.05;1.90;;;;;;;;;;5059067;28;20074;-61
2022/06/04 14:44:24;;;;;;;2.42;1.73;;;;;;;;;;5055534;28;20558;-61
2022/06/04 14:47:09;;;;;;;4.10;2.08;;;;;;;;;;5051419;28;20714;-61
2022/06/04 14:49:51;;;;;;;4.93;1.98;;;;;;;;;;5051495;28;20526;-61
2022/06/04 14:52:20;;;;;;;4.15;1.70;;;;;;;;;;5059583;28;20127;-61
2022/06/04 14:54:48;;;;;;;5.75;2.00;;;;;;;;;;5058336;28;20110;-60
2022/06/04 14:57:23;;;;;;;3.88;1.60;;;;;;;;;;5051638;28;20102;-61
2022/06/04 14:59:54;;;;;;;4.68;2.05;;;;;;;;;;5051082;28;20045;-61
2022/06/04 15:02:33;;;;;;;5.78;1.73;;;;;;;;;;5066368;28;20045;-60